Wooler, United Kingdom
Current Conditions -  °F | °C
As of 4:50 PM on Saturday 20 Dec 2014 (Local Time) from EGQM Reporting Station
Broken Clouds Broken Clouds  
Wind Chill: 37°   Ceiling: 19000
Heat Index: 43°   Visibility: 6mi
Dew Point: 36°   Wind: 10mph
Humidity: 76%   Direction: 260°W
Pressure: 30.18"   Gusts: NA
Location:  55.55°N, 2.01°W
Report Text: EGQM 201650Z AUTO 26009KT 9999 BKN190/// 06/02 Q1022
Loading
Personal Weather Stations






























Interactive Weather Map New forecast layout! Learn more

10-Day Weather Forecast

Advertisements
Track Severe Weather on mobile